Flight Number: EUR2442 Duration: 6:00
Departure: Dakar Int'l Airport (GOOY) at 08:00 Distance: 2481 Nm
Arrival: Munich Int'l (EDDM) at 14:00 Equipment: B777

Weather Information
Dakar / Yoff, Senegal (GOOY) 14-44N 017-30W 24M Jan 22, 2018 - 03:00 AM EST / 2018.01.22 0800 UTC
Wind: from the NNE (020 degrees) at 9 MPH (8 KT):0
Visibility: 1 mile(s):0 Weather: widespread dust Temperature: 64 F (18 C) Dew Point: 55 F (13 C) Relative Humidity: 72% Pressure (altimeter): 29.91 in. Hg (1013 hPa)
ob: GOOY 220800Z 02008KT 2000 DU NSC 18/13 Q1013 cycle: 8
Sunrise: 07:41 Sunset: 19:01 (UTC)

Munchen, Germany (EDDM) 48-21N 011-47E Jan 22, 2018 - 02:50 AM EST / 2018.01.22 0750 UTC
Wind: from the E (100 degrees) at 7 MPH (6 KT):0
Visibility: 1 mile(s):0
Sky conditions: overcast Weather: light snow Temperature: 30 F (-1 C)
Windchill: 23 F (-5 C):1 Dew Point: 28 F (-2 C) Relative Humidity: 92% Pressure (altimeter): 29.85 in. Hg (1011 hPa)
ob: EDDM 220750Z 10006KT 3200 -SN FEW006 OVC024 M01/M02 Q1011 R08R/290095 R08L/////// NOSIG cycle: 8
Sunrise: 06:56 Sunset: 15:52 (UTC)

TAF:2018/01/22 06:27 TAF EDDM 220500Z 2206/2312 10005KT 3000 -SN OVC007 TEMPO 2206/2207 1200 SN VV004 BECMG 2209/2211 24007KT 6000 TEMPO 2209/2211 -FZRA BECMG 2211/2214 BKN015 BECMG 2218/2221 BKN012 TEMPO 2220/2308 3000 -DZ OVC007 BECMG 2310/2312 BKN015

Previous Pireps for this route
Date Aircraft Flight time Fuel used Landing rate On time
2016-03-10B77706.11109136-84Yes
2016-04-10B77705.05106121-224Yes
(pireps marked green are flown by you)

Route map